Time;durP1;ratioP1;P1;durP2;ratioP2;P2;SDS_P1;SDS_P2;PMS_P1;PMS_P2;Temp;Humidity;BMP_temperature;BMP_pressure;BME280_temperature;BME280_humidity;BME280_pressure;Samples;Min_cycle;Max_cycle;Signal;HPM_P1;HPM_P2
2021/03/23 05:52:37;;;;;;;17.77;7.57;;;;;;;-0.23;100.00;98103.47;1742056;80;21325;-55
2021/03/23 05:55:41;;;;;;;18.23;6.47;;;;;;;-0.25;99.99;98103.64;1741117;80;22296;-56
2021/03/23 05:58:25;;;;;;;17.90;6.93;;;;;;;-0.23;100.00;98110.79;1743636;81;21343;-53
2021/03/23 06:01:28;;;;;;;16.07;6.25;;;;;;;-0.28;100.00;98104.78;1712829;82;21265;-51
2021/03/23 06:04:18;;;;;;;14.83;6.30;;;;;;;-0.33;100.00;98115.28;1685881;85;21162;-58
2021/03/23 06:07:05;;;;;;;16.87;6.43;;;;;;;-0.40;100.00;98118.98;1737718;81;21222;-54
2021/03/23 06:09:37;;;;;;;15.83;6.00;;;;;;;-0.45;100.00;98122.52;1715391;82;21178;-53
2021/03/23 06:12:38;;;;;;;17.00;6.20;;;;;;;-0.45;100.00;98119.13;1714298;82;21585;-53
2021/03/23 06:15:29;;;;;;;13.23;5.87;;;;;;;-0.43;100.00;98132.23;1737320;82;21332;-49
2021/03/23 06:18:34;;;;;;;13.27;5.53;;;;;;;-0.51;100.00;98129.61;1682918;83;21360;-57
2021/03/23 06:21:26;;;;;;;18.13;7.43;;;;;;;-0.53;100.00;98123.77;1691508;84;21479;-50
2021/03/23 06:24:10;;;;;;;16.23;6.57;;;;;;;-0.58;100.00;98123.41;1698097;83;21161;-63
2021/03/23 06:27:12;;;;;;;14.87;5.97;;;;;;;-0.62;100.00;98124.22;1713272;83;21132;-48
2021/03/23 06:30:39;;;;;;;17.87;6.60;;;;;;;-0.54;100.00;98136.38;1713002;83;21187;-50
2021/03/23 06:33:11;;;;;;;15.33;6.30;;;;;;;-0.48;100.00;98134.47;1656201;86;21229;-49
2021/03/23 06:35:45;;;;;;;14.77;6.93;;;;;;;-0.42;100.00;98133.84;1724807;82;21197;-51
2021/03/23 06:38:33;;;;;;;14.40;5.87;;;;;;;-0.39;100.00;98142.61;1747598;82;21181;-53
2021/03/23 06:41:18;;;;;;;14.57;6.77;;;;;;;-0.38;100.00;98144.23;1748295;82;21158;-57
2021/03/23 06:43:59;;;;;;;28.53;20.07;;;;;;;-0.43;100.00;98158.61;1755958;81;21205;-54
2021/03/23 06:46:36;;;;;;;17.45;8.15;;;;;;;-0.38;100.00;98166.24;1709985;83;21226;-54
2021/03/23 06:49:25;;;;;;;15.27;7.10;;;;;;;-0.25;100.00;98169.69;1698353;84;21213;-59
2021/03/23 06:52:16;;;;;;;15.03;7.47;;;;;;;-0.13;100.00;98172.32;1685012;84;21212;-56
2021/03/23 06:55:21;;;;;;;16.00;6.60;;;;;;;-0.03;100.00;98166.53;1689263;84;22306;-55
2021/03/23 06:57:50;;;;;;;15.23;8.03;;;;;;;0.15;100.00;98166.91;1659467;84;21336;-62
2021/03/23 07:00:28;;;;;;;12.50;6.28;;;;;;;0.30;99.50;98171.01;1663930;86;21217;-61
2021/03/23 07:03:25;;;;;;;27.13;22.53;;;;;;;0.48;97.77;98175.08;1672843;84;21225;-57
2021/03/23 07:05:57;;;;;;;14.53;6.30;;;;;;;0.64;95.93;98169.59;1727701;83;21173;-57
2021/03/23 07:08:27;;;;;;;40.85;23.87;;;;;;;0.70;94.33;98171.05;1727511;83;21165;-59
2021/03/23 07:11:06;;;;;;;12.17;6.10;;;;;;;0.72;94.02;98164.39;1694778;84;21162;-55
2021/03/23 07:13:39;;;;;;;11.90;5.30;;;;;;;0.76;92.89;98178.19;1682340;83;21201;-56
2021/03/23 07:16:23;;;;;;;53.67;36.07;;;;;;;0.79;90.87;98177.84;1732343;81;21171;-57
2021/03/23 07:18:54;;;;;;;18.00;8.97;;;;;;;0.76;90.07;98174.78;1732178;81;21155;-52
2021/03/23 07:21:35;;;;;;;11.08;4.37;;;;;;;0.76;88.64;98175.59;1712298;81;21326;-58
2021/03/23 07:24:15;;;;;;;9.93;4.73;;;;;;;0.82;88.18;98175.92;1734844;81;21525;-52
2021/03/23 07:27:03;;;;;;;13.37;6.13;;;;;;;0.91;86.89;98178.82;1690837;83;21537;-57
2021/03/23 07:29:38;;;;;;;9.80;4.33;;;;;;;1.04;86.26;98173.97;1689931;83;21157;-54
2021/03/23 07:32:41;;;;;;;9.13;4.03;;;;;;;1.40;84.81;98180.08;1686666;83;21350;-53
2021/03/23 07:35:22;;;;;;;57.67;34.90;;;;;;;1.68;82.04;98187.80;1689037;84;21238;-50
2021/03/23 07:38:03;;;;;;;12.28;5.75;;;;;;;1.85;80.87;98192.45;1694753;83;22826;-59
2021/03/23 07:40:43;;;;;;;22.80;11.85;;;;;;;2.03;79.24;98190.42;1704097;83;21632;-56
2021/03/23 07:43:43;;;;;;;12.15;5.40;;;;;;;2.13;78.33;98196.72;1691179;83;22335;-57
2021/03/23 07:46:20;;;;;;;11.70;4.60;;;;;;;2.11;77.32;98186.47;1695602;83;21164;-57
2021/03/23 07:49:06;;;;;;;43.33;18.40;;;;;;;1.96;76.45;98195.98;1693854;83;21302;-55
2021/03/23 07:51:39;;;;;;;18.10;6.47;;;;;;;1.82;76.35;98201.38;1686967;83;21201;-49
2021/03/23 07:54:26;;;;;;;30.02;10.75;;;;;;;1.77;75.24;98197.17;1689358;83;21162;-52
2021/03/23 07:57:10;;;;;;;40.13;16.03;;;;;;;1.73;74.94;98204.19;1664774;85;21205;-60
2021/03/23 08:00:06;;;;;;;14.03;5.97;;;;;;;1.69;75.09;98201.59;1692485;85;21704;-56
2021/03/23 08:03:12;;;;;;;19.33;7.80;;;;;;;1.62;75.05;98192.86;1690293;83;21376;-57
2021/03/23 08:06:23;;;;;;;9.63;4.47;;;;;;;1.65;75.30;98199.00;1692025;85;21148;-56
2021/03/23 08:09:29;;;;;;;13.72;5.47;;;;;;;1.75;73.28;98203.03;1691083;85;21594;-57
2021/03/23 08:12:25;;;;;;;58.43;30.77;;;;;;;1.72;72.03;98197.34;1692259;85;21199;-55
2021/03/23 08:15:05;;;;;;;20.77;11.30;;;;;;;1.73;72.18;98203.70;1693534;83;21169;-58
2021/03/23 08:18:14;;;;;;;16.60;11.50;;;;;;;1.97;70.65;98210.59;1733430;81;21602;-55
2021/03/23 08:21:43;;;;;;;20.93;12.63;;;;;;;2.19;68.85;98209.53;1734625;81;21302;-59
2021/03/23 08:24:43;;;;;;;21.80;8.17;;;;;;;2.36;67.33;98214.97;1701435;83;21161;-56
2021/03/23 08:27:29;;;;;;;13.17;6.43;;;;;;;2.46;66.82;98208.23;1683753;84;21355;-54
2021/03/23 08:30:18;;;;;;;19.00;8.33;;;;;;;2.60;65.51;98189.30;1802192;78;22954;-59
2021/03/23 08:33:25;;;;;;;10.50;5.60;;;;;;;2.52;66.09;98197.94;1793806;80;21173;-57
2021/03/23 08:36:12;;;;;;;21.27;10.23;;;;;;;2.50;66.02;98193.91;1794451;78;21152;-58
2021/03/23 08:39:04;;;;;;;13.93;6.30;;;;;;;2.53;66.43;98198.78;1805186;78;21588;-55
2021/03/23 08:41:47;;;;;;;21.97;12.33;;;;;;;2.58;65.68;98205.55;1843094;78;21250;-57
2021/03/23 08:44:36;;;;;;;16.33;7.43;;;;;;;2.51;64.57;98196.82;1844045;78;21149;-56
2021/03/23 08:47:11;;;;;;;28.05;12.23;;;;;;;2.46;64.41;98199.12;1843848;78;21181;-54
2021/03/23 08:49:41;;;;;;;21.73;10.35;;;;;;;2.44;64.82;98199.80;1805572;78;21189;-56
2021/03/23 08:52:33;;;;;;;16.12;6.70;;;;;;;2.47;64.37;98200.28;1800247;80;21335;-58
2021/03/23 08:55:31;;;;;;;16.90;6.47;;;;;;;2.49;63.47;98212.61;1799786;79;21157;-57
2021/03/23 08:58:05;;;;;;;21.73;12.73;;;;;;;2.48;62.89;98214.90;1805950;78;21200;-58
2021/03/23 09:00:54;;;;;;;27.50;10.08;;;;;;;2.58;61.29;98201.19;1803133;78;22361;-57
2021/03/23 09:03:42;;;;;;;28.95;13.00;;;;;;;2.55;59.56;98221.03;1807793;78;21313;-59
2021/03/23 09:06:16;;;;;;;10.40;5.45;;;;;;;2.38;60.65;98205.20;1805897;78;21133;-55
2021/03/23 09:08:55;;;;;;;15.68;5.45;;;;;;;2.43;58.76;98222.41;1808317;78;21205;-57
2021/03/23 09:12:08;;;;;;;10.50;3.87;;;;;;;2.43;58.59;98196.39;1779348;78;21181;-55
2021/03/23 09:18:16;;;;;;;13.15;5.25;;;;;;;2.21;57.91;98205.77;1800207;79;22884;-56
2021/03/23 09:20:52;;;;;;;8.63;3.73;;;;;;;2.21;57.80;98211.47;1769757;80;21304;-59
2021/03/23 09:23:29;;;;;;;17.63;5.53;;;;;;;2.35;56.66;98206.83;1773147;80;21157;-58
2021/03/23 09:26:01;;;;;;;11.93;5.72;;;;;;;2.57;56.35;98198.24;1769626;80;21200;-58
2021/03/23 09:28:50;;;;;;;21.70;9.50;;;;;;;2.71;56.00;98211.51;1769800;80;21177;-58
2021/03/23 09:31:46;;;;;;;17.32;6.65;;;;;;;2.82;55.76;98209.31;1771777;80;21199;-60
2021/03/23 09:35:05;;;;;;;18.70;5.37;;;;;;;2.88;55.12;98196.90;1772119;80;21723;-59
2021/03/23 09:37:56;;;;;;;31.73;11.33;;;;;;;2.83;53.29;98203.11;1774694;79;21208;-54
2021/03/23 09:40:36;;;;;;;13.18;3.95;;;;;;;2.68;53.34;98195.73;1775563;80;21138;-52
2021/03/23 09:43:10;;;;;;;16.85;5.67;;;;;;;2.62;53.29;98189.92;1771286;80;21149;-61
2021/03/23 09:45:51;;;;;;;17.92;6.53;;;;;;;2.62;52.02;98194.63;1768819;80;21146;-60
2021/03/23 09:48:51;;;;;;;24.32;11.05;;;;;;;2.53;51.28;98190.98;1767283;80;21121;-60
2021/03/23 09:54:49;;;;;;;19.07;11.13;;;;;;;2.42;51.53;98192.17;1827960;77;22941;-58
2021/03/23 09:57:24;;;;;;;16.87;5.90;;;;;;;2.53;50.90;98203.98;1785543;79;21178;-56
2021/03/23 09:59:59;;;;;;;11.93;5.57;;;;;;;2.57;51.76;98193.03;1723148;82;21206;-60
2021/03/23 10:02:38;;;;;;;23.83;12.27;;;;;;;2.51;53.01;98200.23;1726005;83;21217;-62
2021/03/23 10:05:27;;;;;;;17.00;5.70;;;;;;;2.49;53.40;98212.61;1734093;83;21198;-55
2021/03/23 10:08:13;;;;;;;18.07;7.60;;;;;;;2.56;51.75;98195.81;1735067;83;21175;-58
2021/03/23 10:10:43;;;;;;;7.60;4.40;;;;;;;2.66;50.60;98210.72;1734922;83;21191;-58
2021/03/23 10:13:28;;;;;;;11.20;5.47;;;;;;;2.72;49.86;98193.61;1734616;82;21187;-56
2021/03/23 10:16:04;;;;;;;7.47;3.73;;;;;;;2.76;49.46;98203.50;1717297;82;21194;-61
2021/03/23 10:18:37;;;;;;;16.60;5.80;;;;;;;2.74;48.05;98196.83;1720684;83;21198;-58
2021/03/23 10:21:11;;;;;;;14.67;5.37;;;;;;;2.87;47.88;98193.17;1720620;83;21226;-62
2021/03/23 10:23:56;;;;;;;11.50;4.23;;;;;;;3.11;47.93;98179.95;1707111;84;21179;-61
2021/03/23 10:26:41;;;;;;;11.15;3.85;;;;;;;3.42;46.73;98191.53;1716669;82;21582;-63
2021/03/23 10:29:22;;;;;;;26.40;8.88;;;;;;;3.48;44.87;98200.92;1734681;83;21186;-61
2021/03/23 10:31:53;;;;;;;17.92;7.08;;;;;;;3.38;45.43;98192.05;1733733;82;21625;-60
2021/03/23 10:34:26;;;;;;;14.15;6.78;;;;;;;3.27;45.67;98201.14;1734680;83;21175;-61
2021/03/23 10:36:58;;;;;;;26.90;10.30;;;;;;;3.12;46.07;98209.41;1734968;83;21159;-65
2021/03/23 10:39:45;;;;;;;17.00;6.43;;;;;;;3.04;45.79;98194.66;1727422;82;21146;-66
2021/03/23 10:42:25;;;;;;;32.70;14.77;;;;;;;2.89;46.53;98197.70;1699998;82;21122;-57
2021/03/23 10:45:31;;;;;;;28.70;11.08;;;;;;;2.76;46.34;98193.09;1720787;83;21195;-62
2021/03/23 10:48:17;;;;;;;19.30;5.50;;;;;;;2.64;46.13;98199.19;1648194;84;21361;-50
2021/03/23 10:51:11;;;;;;;18.37;7.43;;;;;;;2.58;46.78;98200.34;1723029;82;21213;-60
2021/03/23 10:54:08;;;;;;;40.67;23.00;;;;;;;2.53;45.93;98210.00;1704785;83;21213;-59
2021/03/23 10:56:44;;;;;;;27.50;12.57;;;;;;;2.58;46.53;98206.85;1774288;81;21573;-59
2021/03/23 10:59:21;;;;;;;21.53;7.40;;;;;;;2.65;46.04;98206.50;1774350;81;21633;-56
2021/03/23 11:02:08;;;;;;;21.57;8.50;;;;;;;2.68;46.48;98207.94;1774222;81;21114;-56
2021/03/23 11:05:00;;;;;;;15.63;6.53;;;;;;;2.72;44.03;98219.14;1708249;83;21218;-59
2021/03/23 11:07:36;;;;;;;21.80;11.43;;;;;;;2.69;43.62;98212.96;1777935;80;21503;-61
2021/03/23 11:10:10;;;;;;;19.90;7.83;;;;;;;2.69;44.45;98197.34;1778041;80;21162;-65
2021/03/23 11:12:47;;;;;;;23.67;10.43;;;;;;;2.75;43.18;98207.06;1776518;80;21150;-56
2021/03/23 11:15:18;;;;;;;35.87;15.80;;;;;;;2.72;42.75;98198.81;1723150;80;21189;-58
2021/03/23 11:17:50;;;;;;;22.75;8.23;;;;;;;2.65;43.69;98195.60;1775395;80;21190;-57
2021/03/23 11:20:35;;;;;;;23.73;7.73;;;;;;;2.68;43.78;98202.73;1764771;80;21111;-60
2021/03/23 11:23:26;;;;;;;25.67;13.03;;;;;;;2.72;42.35;98206.62;1754015;81;21299;-59
2021/03/23 11:25:57;;;;;;;11.57;4.25;;;;;;;2.96;43.21;98210.83;1752426;81;21166;-60
2021/03/23 11:28:29;;;;;;;29.18;15.00;;;;;;;3.26;43.71;98199.99;1745580;81;21280;-61
2021/03/23 11:31:05;;;;;;;14.10;5.58;;;;;;;3.33;43.83;98219.97;1745724;80;21146;-55
2021/03/23 11:33:34;;;;;;;21.73;10.40;;;;;;;3.25;43.39;98235.65;1746363;80;21355;-59
2021/03/23 11:36:06;;;;;;;16.12;5.62;;;;;;;3.08;43.73;98225.86;1773977;81;21150;-67
2021/03/23 11:38:35;;;;;;;29.20;11.85;;;;;;;2.96;44.18;98220.75;1772982;80;21186;-56
2021/03/23 11:41:08;;;;;;;33.90;10.37;;;;;;;2.84;43.74;98219.55;1773744;80;21162;-58
2021/03/23 11:43:47;;;;;;;25.97;9.57;;;;;;;2.65;44.37;98218.22;1774551;81;21293;-54
2021/03/23 11:46:34;;;;;;;15.73;5.17;;;;;;;2.57;44.69;98228.16;1774280;81;21566;-55
2021/03/23 11:49:13;;;;;;;10.23;3.90;;;;;;;2.47;44.09;98242.40;1773785;81;21308;-55
2021/03/23 11:51:42;;;;;;;8.87;3.50;;;;;;;2.38;43.64;98221.61;1765195;80;21135;-48
2021/03/23 11:54:12;;;;;;;20.68;6.10;;;;;;;2.46;42.99;98213.44;1766437;81;21551;-58
2021/03/23 11:56:42;;;;;;;27.07;17.40;;;;;;;2.71;42.71;98214.11;1742218;81;21138;-57
2021/03/23 11:59:15;;;;;;;16.07;5.93;;;;;;;2.96;42.60;98212.13;1746386;80;21162;-58
2021/03/23 12:01:45;;;;;;;16.77;9.05;;;;;;;3.13;41.25;98229.24;1764880;80;21423;-60
2021/03/23 12:04:18;;;;;;;4.62;2.27;;;;;;;3.13;41.19;98210.52;1753407;80;21616;-57
2021/03/23 12:07:15;;;;;;;36.97;19.23;;;;;;;3.03;41.49;98226.06;1759145;81;21171;-56
2021/03/23 12:09:53;;;;;;;23.17;8.17;;;;;;;2.86;43.22;98216.27;1730514;81;21744;-58
2021/03/23 12:12:40;;;;;;;25.70;7.77;;;;;;;2.80;44.25;98219.56;1770212;81;21208;-61
2021/03/23 12:15:19;;;;;;;11.20;3.87;;;;;;;2.75;44.06;98223.98;1771453;80;21123;-56
2021/03/23 12:17:54;;;;;;;12.68;4.92;;;;;;;2.75;42.43;98224.47;1772082;81;21122;-61
2021/03/23 12:20:29;;;;;;;4.37;2.70;;;;;;;2.85;43.03;98218.06;1770339;81;21154;-58
2021/03/23 12:22:58;;;;;;;15.70;5.47;;;;;;;3.00;41.17;98228.54;1771538;80;21324;-58
2021/03/23 12:25:28;;;;;;;6.23;2.63;;;;;;;3.06;41.30;98229.64;1771364;81;21303;-58
2021/03/23 12:28:00;;;;;;;6.87;2.67;;;;;;;3.10;41.50;98225.21;1768709;80;21194;-61
2021/03/23 12:30:31;;;;;;;9.58;3.77;;;;;;;3.09;41.86;98222.27;1754453;81;21123;-67
2021/03/23 12:33:01;;;;;;;11.20;3.83;;;;;;;2.95;41.13;98233.95;1763452;81;21151;-55
2021/03/23 12:35:32;;;;;;;10.13;4.03;;;;;;;2.85;40.68;98240.68;1766734;80;21142;-57
2021/03/23 12:38:04;;;;;;;;;;;;;;;2.78;41.14;98228.85;1772734;81;21621;-57
2021/03/23 12:40:34;;;;;;;48.50;22.95;;;;;;;2.71;41.77;98245.34;1771375;80;20209;-57
2021/03/23 12:45:45;;;;;;;35.33;17.97;;;;;;;2.62;41.53;98238.06;1793458;79;23154;-57
2021/03/23 12:48:17;;;;;;;26.13;10.40;;;;;;;2.56;42.43;98244.77;1763232;80;21767;-55
2021/03/23 12:50:47;;;;;;;26.97;14.33;;;;;;;2.64;41.77;98240.83;1754711;79;21181;-54
2021/03/23 12:53:18;;;;;;;21.03;9.67;;;;;;;2.74;42.04;98244.98;1769786;80;21323;-56
2021/03/23 12:55:53;;;;;;;12.90;5.77;;;;;;;2.89;41.69;98249.28;1765346;80;21197;-58
2021/03/23 12:58:32;;;;;;;6.40;2.37;;;;;;;3.08;41.55;98257.60;1765409;80;21203;-51
2021/03/23 13:01:03;;;;;;;4.80;2.67;;;;;;;3.17;40.69;98249.56;1761147;80;21154;-58
2021/03/23 13:03:36;;;;;;;5.27;2.80;;;;;;;3.13;41.13;98248.78;1769203;79;21201;-62
2021/03/23 13:06:08;;;;;;;7.43;3.37;;;;;;;3.06;41.90;98241.36;1763534;80;21144;-59
2021/03/23 13:08:38;;;;;;;6.22;2.80;;;;;;;2.95;40.74;98245.17;1763859;80;21576;-55
2021/03/23 13:11:18;;;;;;;5.35;2.27;;;;;;;2.82;41.42;98256.66;1767700;80;21572;-59
2021/03/23 13:13:51;;;;;;;7.35;2.95;;;;;;;2.74;41.31;98248.89;1763260;80;21212;-50
2021/03/23 13:16:21;;;;;;;11.20;3.83;;;;;;;2.63;41.95;98239.68;1754166;80;21527;-59
2021/03/23 13:18:52;;;;;;;5.23;2.90;;;;;;;2.62;41.11;98256.28;1756026;80;21198;-54
2021/03/23 13:21:29;;;;;;;6.60;2.87;;;;;;;2.63;42.37;98235.77;1769945;80;21604;-64
2021/03/23 13:24:04;;;;;;;7.73;3.17;;;;;;;2.65;42.33;98246.84;1768520;80;21188;-53
2021/03/23 13:26:36;;;;;;;22.33;8.10;;;;;;;2.63;41.96;98250.89;1760549;80;21149;-54
2021/03/23 13:29:09;;;;;;;21.53;8.50;;;;;;;2.60;42.22;98254.34;1768193;79;21196;-56
2021/03/23 13:31:41;;;;;;;12.13;5.27;;;;;;;2.62;42.97;98254.98;1768220;79;21787;-58
2021/03/23 13:34:22;;;;;;;16.17;7.10;;;;;;;2.62;41.69;98263.59;1767718;79;21185;-58
2021/03/23 13:40:23;;;;;;;12.03;5.40;;;;;;;2.56;43.64;98257.77;1681861;79;20201;-48
2021/03/23 13:42:56;;;;;;;11.20;4.50;;;;;;;2.61;42.33;98254.66;1707021;84;21317;-51
2021/03/23 13:45:36;;;;;;;10.35;4.28;;;;;;;2.64;42.27;98260.34;1703225;84;21218;-51
2021/03/23 13:48:27;;;;;;;11.88;4.40;;;;;;;2.67;42.04;98265.69;1695240;84;21202;-49
2021/03/23 13:51:02;;;;;;;15.65;4.33;;;;;;;2.66;41.86;98258.38;1695962;84;21138;-53
2021/03/23 13:53:35;;;;;;;4.10;2.60;;;;;;;2.68;43.24;98252.98;1723181;83;21318;-48
2021/03/23 13:56:06;;;;;;;5.77;2.80;;;;;;;2.66;43.97;98253.66;1687801;83;21204;-53
2021/03/23 13:58:36;;;;;;;5.10;2.30;;;;;;;2.64;42.58;98264.74;1661928;84;21250;-55
2021/03/23 14:01:06;;;;;;;30.50;9.80;;;;;;;2.59;41.69;98262.65;1655438;87;21199;-55
2021/03/23 14:03:35;;;;;;;12.67;4.47;;;;;;;2.51;43.06;98263.16;1701202;84;21170;-55
2021/03/23 14:06:06;;;;;;;12.33;4.50;;;;;;;2.45;42.42;98259.95;1700873;84;21301;-56
2021/03/23 14:08:41;;;;;;;11.57;4.10;;;;;;;2.40;43.58;98266.47;1702670;81;21586;-52
2021/03/23 14:11:12;;;;;;;18.00;5.67;;;;;;;2.39;41.97;98276.55;1742181;82;21115;-53
2021/03/23 14:13:44;;;;;;;11.73;3.77;;;;;;;2.37;42.32;98266.82;1685351;85;21187;-58
2021/03/23 14:16:14;;;;;;;20.17;6.97;;;;;;;2.42;43.33;98262.91;1732544;81;21213;-51
2021/03/23 14:18:47;;;;;;;13.75;4.65;;;;;;;2.45;43.42;98266.45;1747271;81;21691;-48
2021/03/23 14:21:20;;;;;;;;;;;;;;;2.47;42.42;98266.62;1756755;81;21224;-47
2021/03/23 14:23:51;;;;;;;25.55;8.13;;;;;;;2.45;42.65;98270.36;1730740;81;20168;-56
2021/03/23 14:26:24;;;;;;;16.47;5.40;;;;;;;2.44;42.61;98268.25;1667865;85;21329;-51
2021/03/23 14:28:56;;;;;;;18.80;6.37;;;;;;;2.47;42.63;98276.22;1732920;82;21577;-52
2021/03/23 14:31:26;;;;;;;23.02;10.93;;;;;;;2.49;42.49;98271.64;1730312;82;21193;-55
2021/03/23 14:33:57;;;;;;;35.95;15.65;;;;;;;2.46;42.14;98261.07;1727436;81;21181;-53
2021/03/23 14:36:28;;;;;;;38.10;14.78;;;;;;;2.43;42.32;98266.62;1738095;81;21335;-48
2021/03/23 14:39:14;;;;;;;49.77;23.27;;;;;;;2.45;42.67;98267.75;1712167;82;21239;-49
2021/03/23 14:41:46;;;;;;;41.27;22.47;;;;;;;2.45;42.43;98271.66;1713559;84;21193;-56
2021/03/23 14:44:18;;;;;;;19.17;7.15;;;;;;;2.44;43.73;98263.05;1713680;83;21723;-51
2021/03/23 14:46:51;;;;;;;17.05;7.50;;;;;;;2.44;42.91;98278.66;1713258;83;21181;-49
2021/03/23 14:49:20;;;;;;;28.90;10.17;;;;;;;2.40;43.11;98266.47;1713172;84;21644;-49
2021/03/23 14:51:52;;;;;;;13.47;5.90;;;;;;;2.33;43.36;98270.73;1713256;83;21177;-51
2021/03/23 14:54:24;;;;;;;17.40;6.30;;;;;;;2.28;43.40;98271.72;1697488;83;21370;-50
2021/03/23 14:56:55;;;;;;;18.75;6.53;;;;;;;2.21;43.83;98269.48;1700290;82;21159;-52
